sensor_id;sensor_type;location;lat;lon;timestamp;pressure;altitude;pressure_sealevel;temperature;humidity
6425;BME280;12193;42.642;23.384;2023-03-16T00:01:39;93523.75;;;3.12;100.00
6425;BME280;12193;42.642;23.384;2023-03-16T00:04:09;93533.41;;;3.10;100.00
6425;BME280;12193;42.642;23.384;2023-03-16T00:06:39;93532.69;;;3.02;100.00
6425;BME280;12193;42.642;23.384;2023-03-16T00:09:08;93534.53;;;3.07;100.00
6425;BME280;12193;42.642;23.384;2023-03-16T00:11:41;93530.75;;;3.04;100.00
6425;BME280;12193;42.642;23.384;2023-03-16T00:14:10;93543.13;;;3.00;100.00
6425;BME280;12193;42.642;23.384;2023-03-16T00:16:40;93531.47;;;2.98;100.00
6425;BME280;12193;42.642;23.384;2023-03-16T00:19:09;93542.06;;;2.95;100.00
6425;BME280;12193;42.642;23.384;2023-03-16T00:21:38;93541.88;;;2.96;100.00
6425;BME280;12193;42.642;23.384;2023-03-16T00:24:08;93540.94;;;2.83;100.00
6425;BME280;12193;42.642;23.384;2023-03-16T00:26:40;93538.91;;;2.78;100.00
6425;BME280;12193;42.642;23.384;2023-03-16T00:29:10;93535.97;;;2.81;100.00
6425;BME280;12193;42.642;23.384;2023-03-16T00:31:40;93540.50;;;2.79;100.00
6425;BME280;12193;42.642;23.384;2023-03-16T00:34:11;93541.66;;;2.77;100.00
6425;BME280;12193;42.642;23.384;2023-03-16T00:36:40;93544.13;;;2.70;100.00
6425;BME280;12193;42.642;23.384;2023-03-16T00:39:10;93542.00;;;2.74;100.00
6425;BME280;12193;42.642;23.384;2023-03-16T00:41:42;93548.72;;;2.75;100.00
6425;BME280;12193;42.642;23.384;2023-03-16T00:44:12;93554.31;;;2.64;100.00
6425;BME280;12193;42.642;23.384;2023-03-16T00:46:42;93558.09;;;2.68;100.00
6425;BME280;12193;42.642;23.384;2023-03-16T00:49:11;93554.66;;;2.61;100.00
6425;BME280;12193;42.642;23.384;2023-03-16T00:51:41;93554.47;;;2.62;100.00
6425;BME280;12193;42.642;23.384;2023-03-16T00:54:11;93562.34;;;2.61;100.00
6425;BME280;12193;42.642;23.384;2023-03-16T00:56:45;93563.81;;;2.55;100.00
6425;BME280;12193;42.642;23.384;2023-03-16T00:59:15;93563.03;;;2.55;100.00
6425;BME280;12193;42.642;23.384;2023-03-16T01:01:45;93561.72;;;2.59;100.00
6425;BME280;12193;42.642;23.384;2023-03-16T01:04:14;93559.78;;;2.46;100.00
6425;BME280;12193;42.642;23.384;2023-03-16T01:06:44;93562.69;;;2.43;100.00
6425;BME280;12193;42.642;23.384;2023-03-16T04:08:44;93697.16;;;1.58;100.00
6425;BME280;12193;42.642;23.384;2023-03-16T04:11:14;93702.47;;;1.48;100.00
6425;BME280;12193;42.642;23.384;2023-03-16T04:13:44;93699.28;;;1.46;100.00
6425;BME280;12193;42.642;23.384;2023-03-16T04:16:13;93701.84;;;1.46;100.00
6425;BME280;12193;42.642;23.384;2023-03-16T04:18:43;93707.91;;;1.45;100.00
6425;BME280;12193;42.642;23.384;2023-03-16T04:21:13;93696.78;;;1.38;100.00
6425;BME280;12193;42.642;23.384;2023-03-16T04:23:46;93710.84;;;1.34;100.00
6425;BME280;12193;42.642;23.384;2023-03-16T04:26:19;93708.28;;;1.42;100.00
6425;BME280;12193;42.642;23.384;2023-03-16T04:28:51;93712.59;;;1.42;100.00
6425;BME280;12193;42.642;23.384;2023-03-16T04:31:20;93715.97;;;1.34;100.00
6425;BME280;12193;42.642;23.384;2023-03-16T04:33:50;93715.78;;;1.36;100.00
6425;BME280;12193;42.642;23.384;2023-03-16T04:36:20;93718.22;;;1.37;100.00
6425;BME280;12193;42.642;23.384;2023-03-16T04:38:54;93729.41;;;1.36;100.00
6425;BME280;12193;42.642;23.384;2023-03-16T04:41:23;93731.00;;;1.37;100.00
6425;BME280;12193;42.642;23.384;2023-03-16T04:43:53;93731.66;;;1.31;100.00
6425;BME280;12193;42.642;23.384;2023-03-16T04:46:23;93739.97;;;1.41;100.00
6425;BME280;12193;42.642;23.384;2023-03-16T04:48:53;93739.72;;;1.59;100.00
6425;BME280;12193;42.642;23.384;2023-03-16T04:51:24;93741.50;;;1.50;100.00
6425;BME280;12193;42.642;23.384;2023-03-16T04:53:56;93761.03;;;1.43;100.00
6425;BME280;12193;42.642;23.384;2023-03-16T04:56:25;93764.72;;;1.49;100.00
6425;BME280;12193;42.642;23.384;2023-03-16T04:58:55;93762.16;;;1.49;100.00
6425;BME280;12193;42.642;23.384;2023-03-16T05:01:25;93761.53;;;1.47;100.00
6425;BME280;12193;42.642;23.384;2023-03-16T05:03:54;93765.69;;;1.48;100.00
6425;BME280;12193;42.642;23.384;2023-03-16T05:06:24;93776.88;;;1.47;100.00
6425;BME280;12193;42.642;23.384;2023-03-16T05:08:58;93773.50;;;1.54;100.00
6425;BME280;12193;42.642;23.384;2023-03-16T05:11:28;93781.06;;;1.48;100.00
6425;BME280;12193;42.642;23.384;2023-03-16T05:13:58;93773.50;;;1.46;100.00
6425;BME280;12193;42.642;23.384;2023-03-16T05:16:28;93778.34;;;1.41;100.00
6425;BME280;12193;42.642;23.384;2023-03-16T05:18:57;93781.69;;;1.50;100.00
6425;BME280;12193;42.642;23.384;2023-03-16T05:21:26;93793.53;;;1.43;100.00
6425;BME280;12193;42.642;23.384;2023-03-16T05:24:00;93793.53;;;1.43;100.00
6425;BME280;12193;42.642;23.384;2023-03-16T05:26:29;93797.88;;;1.42;100.00
6425;BME280;12193;42.642;23.384;2023-03-16T05:29:00;93795.44;;;1.49;100.00
6425;BME280;12193;42.642;23.384;2023-03-16T05:31:30;93799.25;;;1.61;100.00
6425;BME280;12193;42.642;23.384;2023-03-16T05:34:01;93795.53;;;1.63;100.00
6425;BME280;12193;42.642;23.384;2023-03-16T05:36:30;93800.84;;;1.62;100.00
6425;BME280;12193;42.642;23.384;2023-03-16T05:39:03;93809.03;;;1.57;100.00
6425;BME280;12193;42.642;23.384;2023-03-16T05:41:33;93812.50;;;1.72;100.00
6425;BME280;12193;42.642;23.384;2023-03-16T05:44:03;93806.47;;;1.57;100.00
6425;BME280;12193;42.642;23.384;2023-03-16T05:46:32;93810.63;;;1.58;100.00
6425;BME280;12193;42.642;23.384;2023-03-16T05:49:02;93814.75;;;1.67;100.00
6425;BME280;12193;42.642;23.384;2023-03-16T05:51:31;59546.94;;;-140.48;100.00
6425;BME280;12193;42.642;23.384;2023-03-16T05:54:04;59546.94;;;-140.48;100.00
6425;BME280;12193;42.642;23.384;2023-03-16T05:56:34;59546.94;;;-140.48;100.00
6425;BME280;12193;42.642;23.384;2023-03-16T05:59:04;59546.94;;;-140.48;100.00
6425;BME280;12193;42.642;23.384;2023-03-16T06:01:33;59546.94;;;-140.48;100.00
6425;BME280;12193;42.642;23.384;2023-03-16T06:04:03;59546.94;;;-140.48;100.00
6425;BME280;12193;42.642;23.384;2023-03-16T06:06:32;59546.94;;;-140.48;100.00
6425;BME280;12193;42.642;23.384;2023-03-16T06:09:05;59546.94;;;-140.48;100.00
6425;BME280;12193;42.642;23.384;2023-03-16T06:11:34;59546.94;;;-140.48;100.00
6425;BME280;12193;42.642;23.384;2023-03-16T06:14:04;59546.94;;;-140.48;100.00
6425;BME280;12193;42.642;23.384;2023-03-16T06:16:33;59546.94;;;-140.48;100.00
6425;BME280;12193;42.642;23.384;2023-03-16T06:19:02;59546.94;;;-140.48;100.00
6425;BME280;12193;42.642;23.384;2023-03-16T06:21:32;59546.94;;;-140.48;100.00
6425;BME280;12193;42.642;23.384;2023-03-16T06:24:04;59546.94;;;-140.48;100.00
6425;BME280;12193;42.642;23.384;2023-03-16T06:26:34;59546.94;;;-140.48;100.00
6425;BME280;12193;42.642;23.384;2023-03-16T06:29:04;59546.94;;;-140.48;100.00
6425;BME280;12193;42.642;23.384;2023-03-16T06:31:33;59546.94;;;-140.48;100.00
6425;BME280;12193;42.642;23.384;2023-03-16T06:34:03;59546.94;;;-140.48;100.00
6425;BME280;12193;42.642;23.384;2023-03-16T06:36:32;59546.94;;;-140.48;100.00
6425;BME280;12193;42.642;23.384;2023-03-16T06:39:06;59546.94;;;-140.48;100.00
6425;BME280;12193;42.642;23.384;2023-03-16T06:41:36;59546.94;;;-140.48;100.00
6425;BME280;12193;42.642;23.384;2023-03-16T06:44:08;59546.94;;;-140.48;100.00
6425;BME280;12193;42.642;23.384;2023-03-16T06:46:37;59546.94;;;-140.48;100.00
6425;BME280;12193;42.642;23.384;2023-03-16T06:49:07;59546.94;;;-140.48;100.00
6425;BME280;12193;42.642;23.384;2023-03-16T06:51:36;59546.94;;;-140.48;100.00
6425;BME280;12193;42.642;23.384;2023-03-16T06:54:08;59546.94;;;-140.48;100.00
6425;BME280;12193;42.642;23.384;2023-03-16T06:56:37;59546.94;;;-140.48;100.00
6425;BME280;12193;42.642;23.384;2023-03-16T06:59:07;59546.94;;;-140.48;100.00
6425;BME280;12193;42.642;23.384;2023-03-16T07:01:36;59546.94;;;-140.48;100.00
6425;BME280;12193;42.642;23.384;2023-03-16T07:04:07;59546.94;;;-140.48;100.00
6425;BME280;12193;42.642;23.384;2023-03-16T07:06:38;59546.94;;;-140.48;100.00
6425;BME280;12193;42.642;23.384;2023-03-16T07:09:09;59546.94;;;-140.48;100.00
6425;BME280;12193;42.642;23.384;2023-03-16T07:11:39;59546.94;;;-140.48;100.00
6425;BME280;12193;42.642;23.384;2023-03-16T07:14:09;59546.94;;;-140.48;100.00
6425;BME280;12193;42.642;23.384;2023-03-16T07:16:39;59546.94;;;-140.48;100.00
6425;BME280;12193;42.642;23.384;2023-03-16T07:19:09;59546.94;;;-140.48;100.00
6425;BME280;12193;42.642;23.384;2023-03-16T07:21:38;59546.94;;;-140.48;100.00
6425;BME280;12193;42.642;23.384;2023-03-16T07:24:11;59546.94;;;-140.48;100.00
6425;BME280;12193;42.642;23.384;2023-03-16T07:26:40;59546.94;;;-140.48;100.00
6425;BME280;12193;42.642;23.384;2023-03-16T07:29:11;59546.94;;;-140.48;100.00
6425;BME280;12193;42.642;23.384;2023-03-16T07:31:42;59546.94;;;-140.48;100.00
6425;BME280;12193;42.642;23.384;2023-03-16T07:34:11;59546.94;;;-140.48;100.00
6425;BME280;12193;42.642;23.384;2023-03-16T07:36:41;59546.94;;;-140.48;100.00
6425;BME280;12193;42.642;23.384;2023-03-16T07:39:13;59546.94;;;-140.48;100.00
6425;BME280;12193;42.642;23.384;2023-03-16T07:41:43;59546.94;;;-140.48;100.00
6425;BME280;12193;42.642;23.384;2023-03-16T07:44:12;59546.94;;;-140.48;100.00
6425;BME280;12193;42.642;23.384;2023-03-16T07:46:41;59546.94;;;-140.48;100.00
6425;BME280;12193;42.642;23.384;2023-03-16T07:49:10;59546.94;;;-140.48;100.00
6425;BME280;12193;42.642;23.384;2023-03-16T07:51:42;59546.94;;;-140.48;100.00
6425;BME280;12193;42.642;23.384;2023-03-16T07:54:13;59546.94;;;-140.48;100.00
6425;BME280;12193;42.642;23.384;2023-03-16T07:56:43;59546.94;;;-140.48;100.00
6425;BME280;12193;42.642;23.384;2023-03-16T07:59:12;59546.94;;;-140.48;100.00
6425;BME280;12193;42.642;23.384;2023-03-16T08:01:41;59546.94;;;-140.48;100.00
6425;BME280;12193;42.642;23.384;2023-03-16T08:04:11;59546.94;;;-140.48;100.00
6425;BME280;12193;42.642;23.384;2023-03-16T08:06:41;59546.94;;;-140.48;100.00
6425;BME280;12193;42.642;23.384;2023-03-16T08:09:13;59546.94;;;-140.48;100.00
6425;BME280;12193;42.642;23.384;2023-03-16T08:11:42;59546.94;;;-140.48;100.00
6425;BME280;12193;42.642;23.384;2023-03-16T08:14:12;59546.94;;;-140.48;100.00
6425;BME280;12193;42.642;23.384;2023-03-16T08:16:41;59546.94;;;-140.48;100.00
6425;BME280;12193;42.642;23.384;2023-03-16T08:19:10;59546.94;;;-140.48;100.00
6425;BME280;12193;42.642;23.384;2023-03-16T08:21:40;59546.94;;;-140.48;100.00
6425;BME280;12193;42.642;23.384;2023-03-16T08:24:09;59546.94;;;-140.48;100.00
6425;BME280;12193;42.642;23.384;2023-03-16T08:26:41;59546.94;;;-140.48;100.00
6425;BME280;12193;42.642;23.384;2023-03-16T08:29:11;59546.94;;;-140.48;100.00
6425;BME280;12193;42.642;23.384;2023-03-16T08:31:40;59546.94;;;-140.48;100.00
6425;BME280;12193;42.642;23.384;2023-03-16T08:34:10;59546.94;;;-140.48;100.00
6425;BME280;12193;42.642;23.384;2023-03-16T08:36:39;59546.94;;;-140.48;100.00
6425;BME280;12193;42.642;23.384;2023-03-16T08:39:09;59546.94;;;-140.48;100.00
6425;BME280;12193;42.642;23.384;2023-03-16T08:41:41;59546.94;;;-140.48;100.00
6425;BME280;12193;42.642;23.384;2023-03-16T08:44:12;59546.94;;;-140.48;100.00
6425;BME280;12193;42.642;23.384;2023-03-16T08:46:42;59546.94;;;-140.48;100.00
6425;BME280;12193;42.642;23.384;2023-03-16T08:49:12;59546.94;;;-140.48;100.00
6425;BME280;12193;42.642;23.384;2023-03-16T08:51:42;59546.94;;;-140.48;100.00
6425;BME280;12193;42.642;23.384;2023-03-16T08:54:11;59546.94;;;-140.48;100.00
6425;BME280;12193;42.642;23.384;2023-03-16T08:56:44;59546.94;;;-140.48;100.00
6425;BME280;12193;42.642;23.384;2023-03-16T08:59:13;59546.94;;;-140.48;100.00
6425;BME280;12193;42.642;23.384;2023-03-16T09:01:42;59546.94;;;-140.48;100.00
6425;BME280;12193;42.642;23.384;2023-03-16T09:04:11;59546.94;;;-140.48;100.00
6425;BME280;12193;42.642;23.384;2023-03-16T09:06:41;59546.94;;;-140.48;100.00
6425;BME280;12193;42.642;23.384;2023-03-16T09:09:10;59546.94;;;-140.48;100.00
6425;BME280;12193;42.642;23.384;2023-03-16T09:11:43;59546.94;;;-140.48;100.00
6425;BME280;12193;42.642;23.384;2023-03-16T09:14:15;59546.94;;;-140.48;100.00
6425;BME280;12193;42.642;23.384;2023-03-16T09:16:44;59546.94;;;-140.48;100.00
6425;BME280;12193;42.642;23.384;2023-03-16T09:19:13;59546.94;;;-140.48;100.00
6425;BME280;12193;42.642;23.384;2023-03-16T09:21:43;59546.94;;;-140.48;100.00
6425;BME280;12193;42.642;23.384;2023-03-16T09:24:13;59546.94;;;-140.48;100.00
6425;BME280;12193;42.642;23.384;2023-03-16T09:26:45;59546.94;;;-140.48;100.00
6425;BME280;12193;42.642;23.384;2023-03-16T09:29:16;59546.94;;;-140.48;100.00
6425;BME280;12193;42.642;23.384;2023-03-16T09:31:47;59546.94;;;-140.48;100.00
6425;BME280;12193;42.642;23.384;2023-03-16T09:34:16;59546.94;;;-140.48;100.00
6425;BME280;12193;42.642;23.384;2023-03-16T09:36:45;59546.94;;;-140.48;100.00
6425;BME280;12193;42.642;23.384;2023-03-16T09:39:15;59546.94;;;-140.48;100.00
